createdAt,value
2017-11-14T00:01:54.180Z,5.30
2017-11-14T00:04:22.458Z,5.30
2017-11-14T00:06:50.754Z,5.30
2017-11-14T00:09:19.100Z,5.30
2017-11-14T00:11:48.519Z,5.30
2017-11-14T00:14:16.797Z,5.30
2017-11-14T00:16:45.116Z,5.30
2017-11-14T00:19:13.402Z,5.30
2017-11-14T00:21:41.678Z,5.30
2017-11-14T00:24:11.501Z,5.20
2017-11-14T00:26:39.779Z,5.20
2017-11-14T00:29:08.052Z,5.10
2017-11-14T00:31:36.368Z,5.00
2017-11-14T00:34:05.422Z,5.00
2017-11-14T00:36:33.720Z,5.00
2017-11-14T00:39:02.075Z,5.00
2017-11-14T00:41:30.374Z,5.00
2017-11-14T00:46:29.023Z,4.90
2017-11-14T00:51:27.586Z,5.00
2017-11-14T00:53:56.299Z,5.00
2017-11-14T00:56:24.576Z,5.00
2017-11-14T00:58:53.612Z,5.10
2017-11-14T01:03:51.471Z,5.10
2017-11-14T01:06:19.745Z,5.10
2017-11-14T01:08:48.065Z,5.10
2017-11-14T01:11:17.116Z,5.00
2017-11-14T01:13:45.419Z,5.00
2017-11-14T01:16:13.774Z,5.00
2017-11-14T01:18:42.810Z,5.00
2017-11-14T01:23:41.818Z,5.10
2017-11-14T01:26:10.086Z,5.10
2017-11-14T01:28:38.369Z,5.00
2017-11-14T01:31:07.227Z,5.00
2017-11-14T01:33:35.895Z,5.00
2017-11-14T01:36:04.167Z,5.00
2017-11-14T01:38:33.403Z,4.90
2017-11-14T01:41:02.816Z,4.90
2017-11-14T01:43:31.850Z,4.90
2017-11-14T01:48:29.684Z,4.80
2017-11-14T01:50:58.723Z,4.90
2017-11-14T01:53:27.051Z,4.80
2017-11-14T01:55:55.345Z,4.80
2017-11-14T01:58:23.628Z,4.80
2017-11-14T02:03:21.459Z,4.90
2017-11-14T02:05:49.736Z,4.80
2017-11-14T02:08:18.829Z,4.80
2017-11-14T02:10:48.643Z,4.80
2017-11-14T02:13:16.908Z,4.80
2017-11-14T02:15:45.994Z,4.80
2017-11-14T02:18:14.271Z,4.80
2017-11-14T02:20:42.548Z,4.80
2017-11-14T02:23:10.880Z,4.80
2017-11-14T02:25:39.162Z,4.80
2017-11-14T02:28:07.434Z,4.80
2017-11-14T02:33:05.676Z,4.80
2017-11-14T02:35:35.093Z,4.80
2017-11-14T02:38:04.324Z,4.70
2017-11-14T02:40:32.995Z,4.70
2017-11-14T02:43:01.269Z,4.70
2017-11-14T02:45:29.580Z,4.70
2017-11-14T02:47:57.862Z,4.60
2017-11-14T02:50:26.131Z,4.50
2017-11-14T02:52:55.589Z,4.60
2017-11-14T02:55:23.873Z,4.70
2017-11-14T02:57:52.163Z,4.70
2017-11-14T03:00:21.760Z,4.60
2017-11-14T03:02:50.436Z,4.50
2017-11-14T03:05:18.709Z,4.50
2017-11-14T03:10:16.935Z,4.60
2017-11-14T03:12:45.213Z,4.60
2017-11-14T03:15:13.540Z,4.70
2017-11-14T03:17:41.827Z,4.70
2017-11-14T03:20:10.105Z,4.70
2017-11-14T03:22:39.204Z,4.80
2017-11-14T03:25:07.493Z,5.00
2017-11-14T03:27:37.286Z,5.10
2017-11-14T03:30:05.627Z,5.20
2017-11-14T03:32:35.448Z,5.20
2017-11-14T03:35:03.723Z,5.30
2017-11-14T03:37:32.079Z,5.40
2017-11-14T03:42:29.871Z,5.50
2017-11-14T03:44:58.911Z,5.40
2017-11-14T03:47:27.200Z,5.50
2017-11-14T03:49:55.512Z,5.50
2017-11-14T03:52:24.983Z,5.50
2017-11-14T03:54:53.260Z,5.60
2017-11-14T03:57:22.679Z,5.60
2017-11-14T03:59:51.773Z,5.70
2017-11-14T04:02:20.840Z,5.60
2017-11-14T04:07:19.481Z,5.60
2017-11-14T04:09:49.268Z,5.60
2017-11-14T04:12:17.556Z,5.60
2017-11-14T04:14:46.823Z,5.60
2017-11-14T04:17:15.504Z,5.60
2017-11-14T04:19:43.771Z,5.50
2017-11-14T04:24:42.044Z,5.50
2017-11-14T04:27:10.333Z,5.60
2017-11-14T04:29:38.675Z,5.60
2017-11-14T04:32:06.972Z,5.50
2017-11-14T04:34:35.251Z,5.50
2017-11-14T04:37:03.983Z,5.50
2017-11-14T04:39:32.664Z,5.40
2017-11-14T04:42:01.707Z,5.40
2017-11-14T04:44:31.247Z,5.40
2017-11-14T04:47:00.687Z,5.40
2017-11-14T04:49:28.968Z,5.40
2017-11-14T04:51:57.298Z,5.30
2017-11-14T04:54:25.574Z,5.30
2017-11-14T04:56:55.363Z,5.20
2017-11-14T04:59:24.450Z,5.30
2017-11-14T05:04:22.261Z,5.20
2017-11-14T05:06:50.599Z,5.20
2017-11-14T05:09:18.876Z,5.20
2017-11-14T05:14:16.727Z,5.20
2017-11-14T05:16:45.026Z,5.20
2017-11-14T05:19:13.308Z,5.20
2017-11-14T05:21:42.414Z,5.20
2017-11-14T05:24:10.695Z,5.20
2017-11-14T05:26:39.000Z,5.20
2017-11-14T05:29:08.838Z,5.20
2017-11-14T05:31:37.122Z,5.20
2017-11-14T05:34:11.135Z,5.20
2017-11-14T05:36:39.433Z,5.30
2017-11-14T05:39:07.711Z,5.30
2017-11-14T05:41:36.142Z,5.30
2017-11-14T05:44:05.579Z,5.30
2017-11-14T05:46:33.868Z,5.30
2017-11-14T05:49:02.196Z,5.30
2017-11-14T05:54:00.399Z,5.20
2017-11-14T05:56:28.755Z,5.30
2017-11-14T05:58:57.039Z,5.30
2017-11-14T06:01:26.083Z,5.20
2017-11-14T06:03:54.411Z,5.20
2017-11-14T06:06:22.710Z,5.20
2017-11-14T06:08:50.996Z,5.20
2017-11-14T06:11:20.895Z,5.30
2017-11-14T06:13:49.170Z,5.30
2017-11-14T06:16:17.450Z,5.40
2017-11-14T06:18:45.767Z,5.40
2017-11-14T06:21:14.078Z,5.40
2017-11-14T06:23:43.122Z,5.40
2017-11-14T06:26:11.442Z,5.40
2017-11-14T06:28:40.518Z,5.40
2017-11-14T06:31:09.940Z,5.40
2017-11-14T06:33:38.278Z,5.40
2017-11-14T06:36:06.577Z,5.50
2017-11-14T06:38:36.413Z,5.50
2017-11-14T06:41:05.891Z,5.50
2017-11-14T06:43:34.243Z,5.50
2017-11-14T06:46:03.315Z,5.60
2017-11-14T06:48:32.452Z,5.50
2017-11-14T06:51:00.727Z,5.60
2017-11-14T06:53:29.012Z,5.60
2017-11-14T06:55:58.504Z,5.60
2017-11-14T06:58:26.803Z,5.60
2017-11-14T07:00:55.087Z,5.60
2017-11-14T07:03:23.474Z,5.60
2017-11-14T07:05:53.261Z,5.70
2017-11-14T07:08:21.570Z,5.70
2017-11-14T07:10:49.951Z,5.70
2017-11-14T07:13:18.248Z,5.70
2017-11-14T07:15:46.527Z,5.70
2017-11-14T07:18:14.876Z,5.80
2017-11-14T07:20:44.303Z,5.80
2017-11-14T07:23:12.592Z,5.90
2017-11-14T07:25:40.923Z,5.90
2017-11-14T07:28:09.988Z,5.90
2017-11-14T07:30:38.268Z,6.00
2017-11-14T07:33:06.594Z,6.00
2017-11-14T07:35:34.880Z,6.10
2017-11-14T07:38:03.159Z,6.10
2017-11-14T07:40:32.632Z,6.20
2017-11-14T07:43:00.917Z,6.20
2017-11-14T07:45:32.662Z,6.30
2017-11-14T07:48:02.088Z,6.40
2017-11-14T07:50:31.152Z,6.40
2017-11-14T07:52:59.509Z,6.40
2017-11-14T07:55:27.809Z,6.60
2017-11-14T07:57:56.095Z,6.60
2017-11-14T08:00:24.443Z,6.70
2017-11-14T08:02:52.761Z,6.70
2017-11-14T08:05:21.852Z,6.80
2017-11-14T08:07:50.939Z,6.80
2017-11-14T08:12:48.760Z,6.90
2017-11-14T08:15:18.243Z,7.00
2017-11-14T08:17:46.519Z,7.10
2017-11-14T08:20:14.802Z,7.10
2017-11-14T08:22:43.126Z,7.20
2017-11-14T08:25:12.559Z,7.20
2017-11-14T08:27:40.837Z,7.20
2017-11-14T08:30:09.175Z,7.20
2017-11-14T08:32:38.240Z,7.20
2017-11-14T08:35:07.295Z,7.30
2017-11-14T08:37:35.631Z,7.40
2017-11-14T08:40:04.336Z,7.40
2017-11-14T08:42:34.136Z,7.50
2017-11-14T08:45:02.464Z,7.50
2017-11-14T08:47:31.523Z,7.50
2017-11-14T08:49:59.819Z,7.60
2017-11-14T08:52:28.178Z,7.60
2017-11-14T08:54:57.246Z,7.70
2017-11-14T08:57:26.671Z,7.80
2017-11-14T08:59:55.001Z,8.00
2017-11-14T09:02:24.044Z,8.10
2017-11-14T09:04:52.318Z,8.20
2017-11-14T09:07:20.656Z,8.30
2017-11-14T09:09:49.707Z,8.30
2017-11-14T09:12:18.815Z,8.40
2017-11-14T09:14:47.920Z,8.40
2017-11-14T09:17:17.359Z,8.40
2017-11-14T09:22:16.361Z,8.60
2017-11-14T09:24:45.406Z,8.60
2017-11-14T09:29:43.730Z,8.60
2017-11-14T09:32:12.000Z,8.60
2017-11-14T09:34:41.836Z,8.60
2017-11-14T09:37:10.506Z,8.70
2017-11-14T09:44:38.272Z,8.90
2017-11-14T09:47:08.060Z,9.00
2017-11-14T09:49:36.358Z,9.00
2017-11-14T09:52:04.723Z,9.10
2017-11-14T09:54:33.017Z,9.10
2017-11-14T09:57:01.304Z,9.10
2017-11-14T10:01:59.536Z,9.20
2017-11-14T10:04:27.820Z,9.30
2017-11-14T10:06:56.593Z,9.30
2017-11-14T10:09:25.273Z,9.40
2017-11-14T10:11:54.584Z,9.40
2017-11-14T10:16:53.588Z,9.50
2017-11-14T10:19:21.874Z,9.60
2017-11-14T10:21:50.224Z,9.60
2017-11-14T10:24:18.539Z,9.70
2017-11-14T10:26:46.836Z,9.70
2017-11-14T10:29:15.164Z,9.60
2017-11-14T10:31:43.435Z,9.60
2017-11-14T10:34:12.491Z,9.60
2017-11-14T10:36:41.592Z,9.60
2017-11-14T10:39:09.899Z,9.60
2017-11-14T10:41:39.310Z,9.50
2017-11-14T10:44:07.643Z,9.50
2017-11-14T10:49:05.834Z,9.50
2017-11-14T10:51:34.181Z,9.60
2017-11-14T10:54:03.236Z,9.70
2017-11-14T10:56:31.528Z,9.70
2017-11-14T10:59:01.360Z,9.80
2017-11-14T11:04:00.685Z,9.90
2017-11-14T11:06:29.809Z,9.90
2017-11-14T11:08:58.091Z,9.90
2017-11-14T11:11:26.395Z,9.90
2017-11-14T11:13:54.710Z,10.10
2017-11-14T11:16:33.778Z,10.10
2017-11-14T11:19:02.912Z,10.10
2017-11-14T11:21:31.191Z,10.10
2017-11-14T11:23:59.468Z,10.10
2017-11-14T11:26:27.800Z,10.10
2017-11-14T11:28:56.089Z,10.20
2017-11-14T11:31:25.165Z,10.20
2017-11-14T11:33:54.283Z,10.20
2017-11-14T11:36:24.075Z,10.20
2017-11-14T11:38:53.148Z,10.10
2017-11-14T11:41:21.502Z,10.00
2017-11-14T11:43:49.810Z,10.00
2017-11-14T11:46:18.099Z,10.10
2017-11-14T11:48:47.424Z,10.00
2017-11-14T11:51:15.710Z,10.20
2017-11-14T11:53:43.991Z,10.20
2017-11-14T11:56:13.114Z,10.30
2017-11-14T11:58:41.391Z,10.30
2017-11-14T12:01:10.815Z,10.40
2017-11-14T12:06:09.060Z,10.50
2017-11-14T12:11:07.741Z,10.50
2017-11-14T12:13:36.020Z,10.50
2017-11-14T12:18:34.247Z,10.60
2017-11-14T12:21:03.295Z,10.70
2017-11-14T12:23:31.586Z,10.80
2017-11-14T12:26:01.440Z,10.80
2017-11-14T12:28:29.729Z,10.90
2017-11-14T12:30:59.524Z,10.80
2017-11-14T12:33:27.843Z,10.80
2017-11-14T12:35:56.160Z,10.70
2017-11-14T12:38:25.208Z,10.50
2017-11-14T12:40:54.320Z,10.60
2017-11-14T12:43:22.607Z,10.70
2017-11-14T12:45:51.651Z,10.90
2017-11-14T12:48:21.139Z,10.90
2017-11-14T12:50:49.424Z,10.90
2017-11-14T12:53:17.719Z,11.00
2017-11-14T12:58:15.988Z,11.00
2017-11-14T13:00:45.033Z,10.90
2017-11-14T13:03:13.387Z,11.00
2017-11-14T13:05:41.688Z,11.00
2017-11-14T13:08:09.974Z,10.90
2017-11-14T13:10:38.606Z,10.90
2017-11-14T13:15:36.404Z,10.80
2017-11-14T13:18:04.744Z,10.80
2017-11-14T13:20:33.028Z,10.80
2017-11-14T13:23:02.448Z,10.80
2017-11-14T13:25:30.783Z,10.80
2017-11-14T13:27:59.067Z,10.80
2017-11-14T13:30:27.371Z,10.80
2017-11-14T13:32:56.479Z,10.80
2017-11-14T13:35:25.550Z,10.80
2017-11-14T13:37:54.596Z,10.70
2017-11-14T13:40:22.923Z,10.70
2017-11-14T13:42:51.223Z,10.80
2017-11-14T13:45:19.501Z,10.70
2017-11-14T13:47:47.827Z,10.70
2017-11-14T13:50:17.259Z,10.80
2017-11-14T13:52:45.555Z,10.80
2017-11-14T13:55:13.923Z,10.80
2017-11-14T13:57:42.197Z,10.80
2017-11-14T14:00:10.472Z,10.80
2017-11-14T14:02:38.825Z,10.80
2017-11-14T14:07:36.627Z,10.80
2017-11-14T14:10:05.011Z,10.80
2017-11-14T14:12:33.299Z,10.80
2017-11-14T14:15:02.339Z,10.70
2017-11-14T14:17:30.691Z,10.80
2017-11-14T14:19:59.741Z,10.80
2017-11-14T14:22:28.787Z,10.70
2017-11-14T14:24:57.243Z,10.70
2017-11-14T14:27:25.530Z,10.70
2017-11-14T14:34:53.283Z,10.80
2017-11-14T14:39:51.541Z,10.70
2017-11-14T14:42:20.602Z,10.70
2017-11-14T14:44:48.883Z,10.70
2017-11-14T14:47:18.350Z,10.70
2017-11-14T14:49:46.652Z,10.80
2017-11-14T14:52:14.936Z,10.80
2017-11-14T14:54:43.255Z,10.70
2017-11-14T14:57:12.324Z,10.70
2017-11-14T14:59:41.386Z,10.80
2017-11-14T15:02:09.702Z,10.70
2017-11-14T15:04:38.750Z,10.70
2017-11-14T15:09:37.000Z,10.70
2017-11-14T15:12:06.789Z,10.70
2017-11-14T15:14:35.076Z,10.70
2017-11-14T15:17:03.414Z,10.60
2017-11-14T15:19:31.693Z,10.60
2017-11-14T15:22:01.483Z,10.60
2017-11-14T15:24:30.588Z,10.60
2017-11-14T15:27:00.011Z,10.70
2017-11-14T15:29:28.284Z,10.70
2017-11-14T15:31:56.608Z,10.70
2017-11-14T15:34:24.894Z,10.80
2017-11-14T15:36:53.169Z,10.80
2017-11-14T15:39:22.269Z,10.80
2017-11-14T15:41:51.330Z,10.80
2017-11-14T15:44:19.611Z,10.80
2017-11-14T15:46:48.335Z,10.70
2017-11-14T15:49:16.635Z,10.80
2017-11-14T15:51:44.915Z,10.80
2017-11-14T15:54:14.764Z,10.80
2017-11-14T15:56:43.055Z,10.80
2017-11-14T15:59:12.115Z,10.80
2017-11-14T16:01:41.267Z,10.70
2017-11-14T16:04:09.544Z,10.70
2017-11-14T16:06:37.827Z,10.70
2017-11-14T16:09:06.179Z,10.60
2017-11-14T16:11:34.489Z,10.60
2017-11-14T16:14:03.535Z,10.70
2017-11-14T16:16:32.655Z,10.70
2017-11-14T16:19:00.958Z,10.70
2017-11-14T16:21:30.034Z,10.70
2017-11-14T16:23:59.310Z,10.70
2017-11-14T16:26:28.367Z,10.70
2017-11-14T16:28:56.668Z,10.70
2017-11-14T16:31:26.529Z,10.70
2017-11-14T16:33:54.830Z,10.70
2017-11-14T16:36:23.526Z,10.70
2017-11-14T16:38:52.908Z,10.70
2017-11-14T16:41:21.204Z,10.70
2017-11-14T16:43:49.488Z,10.70
2017-11-14T16:46:19.311Z,10.70
2017-11-14T16:48:47.604Z,10.80
2017-11-14T16:51:15.897Z,10.70
2017-11-14T16:53:44.262Z,10.70
2017-11-14T16:56:12.546Z,10.70
2017-11-14T16:58:41.616Z,10.80
2017-11-14T17:01:09.983Z,10.70
2017-11-14T17:06:07.883Z,10.80
2017-11-14T17:08:36.724Z,10.80
2017-11-14T17:11:06.167Z,10.70
2017-11-14T17:13:34.469Z,10.80
2017-11-14T17:16:02.839Z,10.70
2017-11-14T17:21:00.635Z,10.70
2017-11-14T17:23:28.975Z,10.70
2017-11-14T17:25:58.045Z,10.80
2017-11-14T17:28:27.100Z,10.70
2017-11-14T17:33:55.720Z,10.70
2017-11-14T17:36:24.000Z,10.70
2017-11-14T17:38:56.939Z,10.70
2017-11-14T17:41:26.375Z,10.60
2017-11-14T17:43:54.659Z,10.70
2017-11-14T17:46:23.933Z,10.70
2017-11-14T17:48:52.205Z,10.70
2017-11-14T17:51:20.495Z,10.70
2017-11-14T17:53:50.384Z,10.70
2017-11-14T17:56:18.691Z,10.70
2017-11-14T17:58:47.002Z,10.70
2017-11-14T18:01:15.321Z,10.70
2017-11-14T18:03:44.792Z,10.70
2017-11-14T18:06:13.838Z,10.70
2017-11-14T18:08:43.666Z,10.60
2017-11-14T18:11:11.967Z,10.60
2017-11-14T18:13:40.245Z,10.60
2017-11-14T18:16:09.829Z,10.60
2017-11-14T18:18:38.116Z,10.60
2017-11-14T18:21:06.390Z,10.60
2017-11-14T18:23:34.706Z,10.60
2017-11-14T18:26:03.773Z,10.40
2017-11-14T18:28:32.066Z,10.40
2017-11-14T18:31:00.421Z,10.50
2017-11-14T18:33:29.863Z,10.50
2017-11-14T18:35:58.153Z,10.50
2017-11-14T18:38:26.544Z,10.50
2017-11-14T18:40:56.341Z,10.60
2017-11-14T18:43:24.623Z,10.50
2017-11-14T18:45:52.952Z,10.50
2017-11-14T18:48:21.239Z,10.50
2017-11-14T18:50:49.520Z,10.60
2017-11-14T18:53:17.840Z,10.60
2017-11-14T18:55:46.120Z,10.60
2017-11-14T18:58:15.562Z,10.70
2017-11-14T19:00:44.299Z,10.70
2017-11-14T19:03:13.352Z,10.70
2017-11-14T19:05:42.408Z,10.70
2017-11-14T19:08:11.044Z,10.70
2017-11-14T19:10:39.734Z,10.60
2017-11-14T19:13:08.034Z,10.70
2017-11-14T19:15:36.355Z,10.70
2017-11-14T19:18:04.630Z,10.60
2017-11-14T19:20:34.046Z,10.60
2017-11-14T19:23:02.402Z,10.60
2017-11-14T19:25:30.687Z,10.60
2017-11-14T19:27:58.963Z,10.70
2017-11-14T19:30:27.305Z,10.60
2017-11-14T19:32:55.584Z,10.60
2017-11-14T19:35:23.859Z,10.60
2017-11-14T19:40:21.729Z,10.60
2017-11-14T19:42:50.015Z,10.60
2017-11-14T19:45:18.342Z,10.60
2017-11-14T19:47:46.626Z,10.60
2017-11-14T19:50:16.411Z,10.60
2017-11-14T19:52:44.761Z,10.70
2017-11-14T19:55:13.815Z,10.70
2017-11-14T19:57:42.102Z,10.60
2017-11-14T20:00:10.436Z,10.60
2017-11-14T20:02:38.710Z,10.60
2017-11-14T20:05:06.994Z,10.50
2017-11-14T20:07:36.479Z,10.60
2017-11-14T20:10:04.761Z,10.60
2017-11-14T20:12:33.035Z,10.60
2017-11-14T20:15:01.366Z,10.50
2017-11-14T20:17:29.659Z,10.60
2017-11-14T20:19:57.948Z,10.40
2017-11-14T20:22:27.435Z,10.50
2017-11-14T20:27:26.003Z,10.40
2017-11-14T20:29:54.344Z,10.50
2017-11-14T20:32:23.388Z,10.40
2017-11-14T20:34:51.692Z,10.40
2017-11-14T20:37:20.032Z,10.40
2017-11-14T20:39:49.842Z,10.40
2017-11-14T20:42:18.150Z,10.30
2017-11-14T20:44:46.472Z,10.30
2017-11-14T20:49:44.272Z,10.20
2017-11-14T20:52:12.599Z,10.30
2017-11-14T20:57:10.812Z,10.30
2017-11-14T20:59:39.936Z,10.30
2017-11-14T21:02:09.730Z,10.20
2017-11-14T21:04:39.528Z,10.20
2017-11-14T21:07:07.859Z,10.30
2017-11-14T21:09:36.142Z,10.30
2017-11-14T21:12:05.211Z,10.10
2017-11-14T21:14:33.864Z,10.10
2017-11-14T21:17:02.549Z,10.10
2017-11-14T21:19:31.603Z,10.00
2017-11-14T21:21:59.948Z,10.00
2017-11-14T21:24:28.359Z,9.90
2017-11-14T21:26:56.657Z,9.90
2017-11-14T21:29:25.766Z,9.90
2017-11-14T21:31:54.822Z,9.90
2017-11-14T21:34:23.098Z,9.80
2017-11-14T21:36:52.196Z,9.70
2017-11-14T21:39:20.474Z,9.70
2017-11-14T21:41:48.746Z,9.70
2017-11-14T21:44:17.107Z,9.70
2017-11-14T21:46:45.402Z,9.80
2017-11-14T21:49:13.675Z,9.70
2017-11-14T21:51:42.032Z,9.80
2017-11-14T21:54:11.076Z,9.70
2017-11-14T21:59:09.311Z,9.60
2017-11-14T22:01:37.607Z,9.60
2017-11-14T22:04:07.399Z,9.60
2017-11-14T22:06:36.006Z,9.60
2017-11-14T22:09:04.291Z,9.50
2017-11-14T22:11:33.711Z,9.50
2017-11-14T22:14:02.398Z,9.60
2017-11-14T22:16:30.713Z,9.60
2017-11-14T22:18:58.998Z,9.70
2017-11-14T22:21:27.354Z,9.70
2017-11-14T22:23:56.786Z,9.70
2017-11-14T22:33:53.657Z,9.60
2017-11-14T22:36:22.026Z,9.50
2017-11-14T22:38:51.081Z,9.40
2017-11-14T22:41:19.371Z,9.40
2017-11-14T22:43:47.709Z,9.50
2017-11-14T22:46:17.140Z,9.40
2017-11-14T22:48:46.218Z,9.40
2017-11-14T22:51:15.699Z,9.40
2017-11-14T22:53:44.747Z,9.40
2017-11-14T22:56:13.793Z,9.50
2017-11-14T22:58:42.134Z,9.40
2017-11-14T23:01:10.821Z,9.50
2017-11-14T23:03:39.096Z,9.40
2017-11-14T23:06:07.435Z,9.40
2017-11-14T23:08:36.872Z,9.50
2017-11-14T23:11:05.175Z,9.50
2017-11-14T23:13:33.514Z,9.40
2017-11-14T23:16:02.577Z,9.40
2017-11-14T23:18:30.859Z,9.40
2017-11-14T23:20:59.180Z,9.40
2017-11-14T23:23:27.489Z,9.40
2017-11-14T23:25:55.776Z,9.40
2017-11-14T23:28:25.231Z,9.50
2017-11-14T23:30:53.520Z,9.40
2017-11-14T23:33:21.821Z,9.50
2017-11-14T23:35:50.167Z,9.50
2017-11-14T23:38:18.448Z,9.50
2017-11-14T23:40:47.895Z,9.50
2017-11-14T23:43:16.215Z,9.50
2017-11-14T23:45:44.924Z,9.60
2017-11-14T23:48:14.731Z,9.60
2017-11-14T23:50:43.060Z,9.60
2017-11-14T23:53:11.359Z,9.60
2017-11-14T23:55:40.419Z,9.60
2017-11-14T23:58:08.743Z,9.60
